sensor_id;sensor_type;location;lat;lon;timestamp;P1;durP1;ratioP1;P2;durP2;ratioP2
81170;SDS011;70644;44.818;20.478;2023-07-16T00:00:32;9.88;;;8.98;;
81170;SDS011;70644;44.818;20.478;2023-07-16T00:02:58;9.75;;;8.85;;
81170;SDS011;70644;44.818;20.478;2023-07-16T00:05:24;9.45;;;8.55;;
81170;SDS011;70644;44.818;20.478;2023-07-16T00:07:51;10.30;;;9.38;;
81170;SDS011;70644;44.818;20.478;2023-07-16T00:10:17;9.82;;;8.93;;
81170;SDS011;70644;44.818;20.478;2023-07-16T00:12:43;9.20;;;8.38;;
81170;SDS011;70644;44.818;20.478;2023-07-16T00:15:09;8.35;;;7.55;;
81170;SDS011;70644;44.818;20.478;2023-07-16T00:17:35;9.20;;;8.40;;
81170;SDS011;70644;44.818;20.478;2023-07-16T00:20:02;10.50;;;9.50;;
81170;SDS011;70644;44.818;20.478;2023-07-16T00:22:28;9.32;;;8.52;;
81170;SDS011;70644;44.818;20.478;2023-07-16T00:24:54;9.18;;;8.38;;
81170;SDS011;70644;44.818;20.478;2023-07-16T00:27:20;9.85;;;8.95;;
81170;SDS011;70644;44.818;20.478;2023-07-16T00:29:46;8.85;;;8.05;;
81170;SDS011;70644;44.818;20.478;2023-07-16T00:32:12;9.35;;;8.45;;
81170;SDS011;70644;44.818;20.478;2023-07-16T00:34:38;9.75;;;8.95;;
81170;SDS011;70644;44.818;20.478;2023-07-16T00:37:04;9.40;;;8.60;;
81170;SDS011;70644;44.818;20.478;2023-07-16T00:39:30;9.00;;;8.10;;
81170;SDS011;70644;44.818;20.478;2023-07-16T00:41:56;8.05;;;7.35;;
81170;SDS011;70644;44.818;20.478;2023-07-16T00:44:22;7.90;;;7.20;;
81170;SDS011;70644;44.818;20.478;2023-07-16T00:46:49;9.43;;;8.63;;
81170;SDS011;70644;44.818;20.478;2023-07-16T00:49:15;9.05;;;8.25;;
81170;SDS011;70644;44.818;20.478;2023-07-16T00:51:41;9.13;;;8.32;;
81170;SDS011;70644;44.818;20.478;2023-07-16T00:54:08;9.27;;;8.48;;
81170;SDS011;70644;44.818;20.478;2023-07-16T00:56:34;9.07;;;8.20;;
81170;SDS011;70644;44.818;20.478;2023-07-16T00:59:00;8.90;;;8.10;;
81170;SDS011;70644;44.818;20.478;2023-07-16T01:01:27;9.27;;;8.48;;
81170;SDS011;70644;44.818;20.478;2023-07-16T01:03:53;7.60;;;6.90;;
81170;SDS011;70644;44.818;20.478;2023-07-16T01:06:22;8.60;;;7.90;;
81170;SDS011;70644;44.818;20.478;2023-07-16T01:11:19;9.00;;;8.20;;
81170;SDS011;70644;44.818;20.478;2023-07-16T01:13:45;8.25;;;7.55;;
81170;SDS011;70644;44.818;20.478;2023-07-16T01:16:21;8.60;;;7.90;;
81170;SDS011;70644;44.818;20.478;2023-07-16T01:18:48;7.80;;;6.97;;
81170;SDS011;70644;44.818;20.478;2023-07-16T01:21:18;8.63;;;7.82;;
81170;SDS011;70644;44.818;20.478;2023-07-16T01:31:15;8.65;;;7.85;;
81170;SDS011;70644;44.818;20.478;2023-07-16T01:33:41;8.30;;;7.60;;
81170;SDS011;70644;44.818;20.478;2023-07-16T01:36:08;9.27;;;8.48;;
81170;SDS011;70644;44.818;20.478;2023-07-16T01:38:34;8.35;;;7.55;;
81170;SDS011;70644;44.818;20.478;2023-07-16T01:41:01;8.30;;;7.53;;
81170;SDS011;70644;44.818;20.478;2023-07-16T01:43:27;8.68;;;7.93;;
81170;SDS011;70644;44.818;20.478;2023-07-16T01:45:53;8.07;;;7.38;;
81170;SDS011;70644;44.818;20.478;2023-07-16T01:48:27;8.18;;;7.35;;
81170;SDS011;70644;44.818;20.478;2023-07-16T01:50:55;8.52;;;7.72;;
81170;SDS011;70644;44.818;20.478;2023-07-16T01:53:21;8.63;;;7.82;;
81170;SDS011;70644;44.818;20.478;2023-07-16T01:55:47;8.07;;;7.38;;
81170;SDS011;70644;44.818;20.478;2023-07-16T01:58:13;7.75;;;7.05;;
81170;SDS011;70644;44.818;20.478;2023-07-16T02:00:39;8.45;;;7.72;;
81170;SDS011;70644;44.818;20.478;2023-07-16T02:03:05;7.93;;;7.22;;
81170;SDS011;70644;44.818;20.478;2023-07-16T02:05:31;8.13;;;7.43;;
81170;SDS011;70644;44.818;20.478;2023-07-16T02:07:57;8.27;;;7.50;;
81170;SDS011;70644;44.818;20.478;2023-07-16T02:10:23;8.10;;;7.40;;
81170;SDS011;70644;44.818;20.478;2023-07-16T02:12:49;7.90;;;7.20;;
81170;SDS011;70644;44.818;20.478;2023-07-16T02:15:15;8.35;;;7.55;;
81170;SDS011;70644;44.818;20.478;2023-07-16T02:17:43;8.00;;;7.30;;
81170;SDS011;70644;44.818;20.478;2023-07-16T02:20:09;7.70;;;7.00;;
81170;SDS011;70644;44.818;20.478;2023-07-16T02:22:35;7.78;;;6.93;;
81170;SDS011;70644;44.818;20.478;2023-07-16T02:25:02;7.85;;;7.15;;
81170;SDS011;70644;44.818;20.478;2023-07-16T02:27:28;7.40;;;6.80;;
81170;SDS011;70644;44.818;20.478;2023-07-16T02:29:54;7.75;;;7.05;;
81170;SDS011;70644;44.818;20.478;2023-07-16T02:32:20;7.85;;;7.15;;
81170;SDS011;70644;44.818;20.478;2023-07-16T02:34:46;8.55;;;7.75;;
81170;SDS011;70644;44.818;20.478;2023-07-16T02:37:12;7.78;;;7.07;;
81170;SDS011;70644;44.818;20.478;2023-07-16T02:39:39;7.72;;;7.03;;
81170;SDS011;70644;44.818;20.478;2023-07-16T02:42:05;7.30;;;6.70;;
81170;SDS011;70644;44.818;20.478;2023-07-16T02:44:31;8.00;;;7.30;;
81170;SDS011;70644;44.818;20.478;2023-07-16T02:46:57;7.78;;;7.07;;
81170;SDS011;70644;44.818;20.478;2023-07-16T02:49:23;7.75;;;6.88;;
81170;SDS011;70644;44.818;20.478;2023-07-16T02:51:49;7.85;;;7.15;;
81170;SDS011;70644;44.818;20.478;2023-07-16T02:54:15;7.57;;;6.88;;
81170;SDS011;70644;44.818;20.478;2023-07-16T02:56:41;8.00;;;7.30;;
81170;SDS011;70644;44.818;20.478;2023-07-16T02:59:08;7.47;;;6.88;;
81170;SDS011;70644;44.818;20.478;2023-07-16T03:01:34;7.50;;;6.80;;
81170;SDS011;70644;44.818;20.478;2023-07-16T03:04:00;7.80;;;7.03;;
81170;SDS011;70644;44.818;20.478;2023-07-16T03:06:26;7.40;;;6.80;;
81170;SDS011;70644;44.818;20.478;2023-07-16T03:08:52;7.05;;;6.45;;
81170;SDS011;70644;44.818;20.478;2023-07-16T03:11:18;8.00;;;7.30;;
81170;SDS011;70644;44.818;20.478;2023-07-16T03:13:44;7.40;;;6.80;;
81170;SDS011;70644;44.818;20.478;2023-07-16T03:16:10;7.15;;;6.45;;
81170;SDS011;70644;44.818;20.478;2023-07-16T03:18:36;7.55;;;6.85;;
81170;SDS011;70644;44.818;20.478;2023-07-16T03:21:02;7.60;;;6.90;;
81170;SDS011;70644;44.818;20.478;2023-07-16T03:23:28;7.50;;;6.90;;
81170;SDS011;70644;44.818;20.478;2023-07-16T03:25:54;7.22;;;6.63;;
81170;SDS011;70644;44.818;20.478;2023-07-16T03:28:21;7.50;;;6.85;;
81170;SDS011;70644;44.818;20.478;2023-07-16T03:30:47;6.75;;;6.13;;
81170;SDS011;70644;44.818;20.478;2023-07-16T03:33:13;7.03;;;6.43;;
81170;SDS011;70644;44.818;20.478;2023-07-16T03:35:42;7.53;;;6.82;;
81170;SDS011;70644;44.818;20.478;2023-07-16T03:38:08;7.20;;;6.60;;
81170;SDS011;70644;44.818;20.478;2023-07-16T03:40:34;7.15;;;6.55;;
81170;SDS011;70644;44.818;20.478;2023-07-16T03:43:01;7.70;;;6.90;;
81170;SDS011;70644;44.818;20.478;2023-07-16T03:45:27;7.38;;;6.68;;
81170;SDS011;70644;44.818;20.478;2023-07-16T03:47:53;6.20;;;5.60;;
81170;SDS011;70644;44.818;20.478;2023-07-16T03:50:19;6.95;;;6.35;;
81170;SDS011;70644;44.818;20.478;2023-07-16T03:52:45;7.60;;;6.90;;
81170;SDS011;70644;44.818;20.478;2023-07-16T03:55:11;6.65;;;6.05;;
81170;SDS011;70644;44.818;20.478;2023-07-16T03:57:37;6.80;;;6.20;;
81170;SDS011;70644;44.818;20.478;2023-07-16T04:00:03;7.10;;;6.50;;
81170;SDS011;70644;44.818;20.478;2023-07-16T04:02:32;6.93;;;6.22;;
81170;SDS011;70644;44.818;20.478;2023-07-16T04:04:58;6.68;;;6.07;;
81170;SDS011;70644;44.818;20.478;2023-07-16T04:07:24;7.18;;;6.47;;
81170;SDS011;70644;44.818;20.478;2023-07-16T04:09:51;6.85;;;6.18;;
81170;SDS011;70644;44.818;20.478;2023-07-16T04:12:17;6.55;;;5.95;;
81170;SDS011;70644;44.818;20.478;2023-07-16T04:14:44;6.65;;;6.05;;
81170;SDS011;70644;44.818;20.478;2023-07-16T04:17:10;7.35;;;6.65;;
81170;SDS011;70644;44.818;20.478;2023-07-16T04:19:36;6.97;;;6.38;;
81170;SDS011;70644;44.818;20.478;2023-07-16T04:22:02;7.10;;;6.50;;
81170;SDS011;70644;44.818;20.478;2023-07-16T04:24:28;7.25;;;6.55;;
81170;SDS011;70644;44.818;20.478;2023-07-16T04:26:54;6.95;;;6.35;;
81170;SDS011;70644;44.818;20.478;2023-07-16T04:29:20;6.57;;;5.95;;
81170;SDS011;70644;44.818;20.478;2023-07-16T04:31:46;6.47;;;5.88;;
81170;SDS011;70644;44.818;20.478;2023-07-16T04:34:12;5.75;;;5.05;;
81170;SDS011;70644;44.818;20.478;2023-07-16T04:36:38;6.60;;;6.00;;
81170;SDS011;70644;44.818;20.478;2023-07-16T04:39:04;6.25;;;5.75;;
81170;SDS011;70644;44.818;20.478;2023-07-16T04:41:30;6.75;;;6.15;;
81170;SDS011;70644;44.818;20.478;2023-07-16T04:43:56;6.70;;;6.10;;
81170;SDS011;70644;44.818;20.478;2023-07-16T04:46:23;7.15;;;6.45;;
81170;SDS011;70644;44.818;20.478;2023-07-16T04:48:49;6.53;;;5.93;;
81170;SDS011;70644;44.818;20.478;2023-07-16T04:51:15;6.82;;;6.22;;
81170;SDS011;70644;44.818;20.478;2023-07-16T04:53:41;6.57;;;5.97;;
81170;SDS011;70644;44.818;20.478;2023-07-16T04:56:13;6.50;;;5.90;;
81170;SDS011;70644;44.818;20.478;2023-07-16T04:58:40;5.97;;;5.38;;
81170;SDS011;70644;44.818;20.478;2023-07-16T05:01:07;6.70;;;5.85;;
81170;SDS011;70644;44.818;20.478;2023-07-16T05:03:33;6.75;;;6.15;;
81170;SDS011;70644;44.818;20.478;2023-07-16T05:05:59;6.22;;;5.72;;
81170;SDS011;70644;44.818;20.478;2023-07-16T05:08:25;6.95;;;6.25;;
81170;SDS011;70644;44.818;20.478;2023-07-16T05:10:51;6.47;;;5.85;;
81170;SDS011;70644;44.818;20.478;2023-07-16T05:13:17;6.78;;;6.10;;
81170;SDS011;70644;44.818;20.478;2023-07-16T05:15:44;6.32;;;5.72;;
81170;SDS011;70644;44.818;20.478;2023-07-16T05:18:10;6.75;;;6.15;;
81170;SDS011;70644;44.818;20.478;2023-07-16T05:20:36;6.50;;;5.90;;
81170;SDS011;70644;44.818;20.478;2023-07-16T05:23:02;6.65;;;6.05;;
81170;SDS011;70644;44.818;20.478;2023-07-16T05:25:28;6.72;;;6.13;;
81170;SDS011;70644;44.818;20.478;2023-07-16T05:27:54;6.20;;;5.70;;
81170;SDS011;70644;44.818;20.478;2023-07-16T05:30:20;6.63;;;6.03;;
81170;SDS011;70644;44.818;20.478;2023-07-16T05:32:46;6.72;;;6.13;;
81170;SDS011;70644;44.818;20.478;2023-07-16T05:35:12;6.43;;;5.82;;
81170;SDS011;70644;44.818;20.478;2023-07-16T05:37:38;6.60;;;6.00;;
81170;SDS011;70644;44.818;20.478;2023-07-16T05:40:05;6.47;;;5.88;;
81170;SDS011;70644;44.818;20.478;2023-07-16T05:42:34;6.63;;;6.03;;
81170;SDS011;70644;44.818;20.478;2023-07-16T05:45:00;6.50;;;5.90;;
81170;SDS011;70644;44.818;20.478;2023-07-16T05:47:26;5.82;;;5.00;;
81170;SDS011;70644;44.818;20.478;2023-07-16T05:49:52;6.15;;;5.55;;
81170;SDS011;70644;44.818;20.478;2023-07-16T05:52:18;5.93;;;5.35;;
81170;SDS011;70644;44.818;20.478;2023-07-16T05:54:44;6.05;;;5.55;;
81170;SDS011;70644;44.818;20.478;2023-07-16T05:57:10;6.68;;;6.03;;
81170;SDS011;70644;44.818;20.478;2023-07-16T05:59:36;6.78;;;6.07;;
81170;SDS011;70644;44.818;20.478;2023-07-16T06:02:03;6.10;;;5.50;;
81170;SDS011;70644;44.818;20.478;2023-07-16T06:04:29;6.53;;;5.95;;
81170;SDS011;70644;44.818;20.478;2023-07-16T06:06:56;6.13;;;5.57;;
81170;SDS011;70644;44.818;20.478;2023-07-16T06:09:22;6.22;;;5.63;;
81170;SDS011;70644;44.818;20.478;2023-07-16T06:11:48;6.35;;;5.75;;
81170;SDS011;70644;44.818;20.478;2023-07-16T06:14:15;6.50;;;5.90;;
81170;SDS011;70644;44.818;20.478;2023-07-16T06:16:41;5.80;;;5.30;;
81170;SDS011;70644;44.818;20.478;2023-07-16T06:19:07;6.25;;;5.75;;
81170;SDS011;70644;44.818;20.478;2023-07-16T06:21:33;6.20;;;5.60;;
81170;SDS011;70644;44.818;20.478;2023-07-16T06:24:00;6.18;;;5.68;;
81170;SDS011;70644;44.818;20.478;2023-07-16T06:26:26;6.07;;;5.50;;
81170;SDS011;70644;44.818;20.478;2023-07-16T06:28:52;6.30;;;5.70;;
81170;SDS011;70644;44.818;20.478;2023-07-16T06:31:19;6.35;;;5.75;;
81170;SDS011;70644;44.818;20.478;2023-07-16T06:33:45;6.35;;;5.75;;
81170;SDS011;70644;44.818;20.478;2023-07-16T06:36:12;6.38;;;5.78;;
81170;SDS011;70644;44.818;20.478;2023-07-16T06:38:38;5.78;;;5.28;;
81170;SDS011;70644;44.818;20.478;2023-07-16T06:41:04;5.78;;;5.28;;
81170;SDS011;70644;44.818;20.478;2023-07-16T06:43:30;6.20;;;5.60;;
81170;SDS011;70644;44.818;20.478;2023-07-16T06:45:56;6.20;;;5.65;;
81170;SDS011;70644;44.818;20.478;2023-07-16T06:48:22;6.05;;;5.47;;
81170;SDS011;70644;44.818;20.478;2023-07-16T06:50:51;6.32;;;5.68;;
81170;SDS011;70644;44.818;20.478;2023-07-16T06:53:17;5.75;;;5.25;;
81170;SDS011;70644;44.818;20.478;2023-07-16T06:55:44;5.53;;;5.03;;
81170;SDS011;70644;44.818;20.478;2023-07-16T06:58:10;5.80;;;5.30;;
81170;SDS011;70644;44.818;20.478;2023-07-16T07:00:36;5.57;;;5.07;;
81170;SDS011;70644;44.818;20.478;2023-07-16T07:03:02;5.55;;;5.05;;
81170;SDS011;70644;44.818;20.478;2023-07-16T07:05:28;5.70;;;5.20;;
81170;SDS011;70644;44.818;20.478;2023-07-16T07:07:54;6.93;;;6.32;;
81170;SDS011;70644;44.818;20.478;2023-07-16T07:10:20;5.70;;;5.10;;
81170;SDS011;70644;44.818;20.478;2023-07-16T07:12:46;6.13;;;5.63;;
81170;SDS011;70644;44.818;20.478;2023-07-16T07:15:13;5.75;;;5.25;;
81170;SDS011;70644;44.818;20.478;2023-07-16T07:17:39;6.22;;;5.63;;
81170;SDS011;70644;44.818;20.478;2023-07-16T07:20:07;6.00;;;5.50;;
81170;SDS011;70644;44.818;20.478;2023-07-16T07:22:33;6.65;;;6.05;;
81170;SDS011;70644;44.818;20.478;2023-07-16T07:24:59;5.72;;;5.13;;
81170;SDS011;70644;44.818;20.478;2023-07-16T07:27:26;6.45;;;5.85;;
81170;SDS011;70644;44.818;20.478;2023-07-16T07:29:52;6.13;;;5.53;;
81170;SDS011;70644;44.818;20.478;2023-07-16T07:32:20;5.90;;;5.40;;
81170;SDS011;70644;44.818;20.478;2023-07-16T07:34:46;6.10;;;5.50;;
81170;SDS011;70644;44.818;20.478;2023-07-16T07:37:12;6.60;;;5.63;;
81170;SDS011;70644;44.818;20.478;2023-07-16T07:39:40;6.22;;;5.72;;
81170;SDS011;70644;44.818;20.478;2023-07-16T07:42:06;5.88;;;5.38;;
81170;SDS011;70644;44.818;20.478;2023-07-16T07:44:32;5.78;;;5.28;;
81170;SDS011;70644;44.818;20.478;2023-07-16T07:46:58;4.88;;;4.32;;
81170;SDS011;70644;44.818;20.478;2023-07-16T07:49:25;6.40;;;5.80;;
81170;SDS011;70644;44.818;20.478;2023-07-16T07:51:51;6.75;;;5.88;;
81170;SDS011;70644;44.818;20.478;2023-07-16T07:54:17;5.95;;;5.35;;
81170;SDS011;70644;44.818;20.478;2023-07-16T07:56:44;5.80;;;5.30;;
81170;SDS011;70644;44.818;20.478;2023-07-16T07:59:10;5.80;;;5.30;;
81170;SDS011;70644;44.818;20.478;2023-07-16T08:01:36;5.45;;;4.90;;
81170;SDS011;70644;44.818;20.478;2023-07-16T08:04:03;6.53;;;5.93;;
81170;SDS011;70644;44.818;20.478;2023-07-16T08:06:29;5.70;;;5.20;;
81170;SDS011;70644;44.818;20.478;2023-07-16T08:08:55;6.30;;;5.70;;
81170;SDS011;70644;44.818;20.478;2023-07-16T08:11:21;5.72;;;5.22;;
81170;SDS011;70644;44.818;20.478;2023-07-16T08:13:47;5.90;;;5.40;;
81170;SDS011;70644;44.818;20.478;2023-07-16T08:16:14;5.72;;;5.22;;
81170;SDS011;70644;44.818;20.478;2023-07-16T08:18:40;5.88;;;4.97;;
81170;SDS011;70644;44.818;20.478;2023-07-16T08:21:06;6.68;;;6.05;;
81170;SDS011;70644;44.818;20.478;2023-07-16T08:23:32;5.90;;;5.40;;
81170;SDS011;70644;44.818;20.478;2023-07-16T08:25:58;6.05;;;5.45;;
81170;SDS011;70644;44.818;20.478;2023-07-16T08:28:24;6.30;;;5.60;;
81170;SDS011;70644;44.818;20.478;2023-07-16T08:30:50;5.97;;;5.47;;
81170;SDS011;70644;44.818;20.478;2023-07-16T08:33:16;6.43;;;5.82;;
81170;SDS011;70644;44.818;20.478;2023-07-16T08:35:42;6.40;;;5.75;;
81170;SDS011;70644;44.818;20.478;2023-07-16T08:38:09;6.18;;;5.57;;
81170;SDS011;70644;44.818;20.478;2023-07-16T08:40:38;6.13;;;5.55;;
81170;SDS011;70644;44.818;20.478;2023-07-16T08:43:07;6.47;;;5.88;;
81170;SDS011;70644;44.818;20.478;2023-07-16T08:45:38;6.43;;;5.82;;
81170;SDS011;70644;44.818;20.478;2023-07-16T08:48:06;6.18;;;5.68;;
81170;SDS011;70644;44.818;20.478;2023-07-16T08:50:33;5.95;;;5.35;;
81170;SDS011;70644;44.818;20.478;2023-07-16T08:53:04;6.65;;;5.60;;
81170;SDS011;70644;44.818;20.478;2023-07-16T08:55:31;6.15;;;5.55;;
81170;SDS011;70644;44.818;20.478;2023-07-16T08:57:57;6.50;;;5.88;;
81170;SDS011;70644;44.818;20.478;2023-07-16T09:00:24;6.20;;;5.60;;
81170;SDS011;70644;44.818;20.478;2023-07-16T09:02:51;6.40;;;5.80;;
81170;SDS011;70644;44.818;20.478;2023-07-16T09:05:19;6.50;;;5.90;;
81170;SDS011;70644;44.818;20.478;2023-07-16T09:07:46;6.40;;;5.65;;
81170;SDS011;70644;44.818;20.478;2023-07-16T09:10:12;6.43;;;5.82;;
81170;SDS011;70644;44.818;20.478;2023-07-16T09:12:44;6.53;;;5.93;;
81170;SDS011;70644;44.818;20.478;2023-07-16T09:15:11;7.13;;;6.35;;
81170;SDS011;70644;44.818;20.478;2023-07-16T09:17:37;7.18;;;6.47;;
81170;SDS011;70644;44.818;20.478;2023-07-16T09:20:04;7.07;;;6.47;;
81170;SDS011;70644;44.818;20.478;2023-07-16T09:22:33;7.30;;;6.60;;
81170;SDS011;70644;44.818;20.478;2023-07-16T09:25:00;6.63;;;6.03;;
81170;SDS011;70644;44.818;20.478;2023-07-16T09:27:30;6.88;;;6.20;;
81170;SDS011;70644;44.818;20.478;2023-07-16T09:29:58;7.20;;;6.50;;
81170;SDS011;70644;44.818;20.478;2023-07-16T09:34:53;6.93;;;6.32;;
81170;SDS011;70644;44.818;20.478;2023-07-16T09:37:19;6.70;;;6.07;;
81170;SDS011;70644;44.818;20.478;2023-07-16T09:39:46;7.30;;;6.65;;
81170;SDS011;70644;44.818;20.478;2023-07-16T09:42:12;7.10;;;6.40;;
81170;SDS011;70644;44.818;20.478;2023-07-16T09:44:40;7.30;;;6.60;;
81170;SDS011;70644;44.818;20.478;2023-07-16T09:47:07;6.63;;;6.03;;
81170;SDS011;70644;44.818;20.478;2023-07-16T09:49:33;7.40;;;6.70;;
81170;SDS011;70644;44.818;20.478;2023-07-16T09:51:59;8.23;;;6.60;;
81170;SDS011;70644;44.818;20.478;2023-07-16T09:54:27;8.00;;;7.20;;
81170;SDS011;70644;44.818;20.478;2023-07-16T09:56:58;7.70;;;6.90;;
81170;SDS011;70644;44.818;20.478;2023-07-16T09:59:27;7.45;;;6.75;;
81170;SDS011;70644;44.818;20.478;2023-07-16T10:01:54;8.05;;;7.35;;
81170;SDS011;70644;44.818;20.478;2023-07-16T10:04:21;7.65;;;6.95;;
81170;SDS011;70644;44.818;20.478;2023-07-16T10:06:54;8.13;;;7.28;;
81170;SDS011;70644;44.818;20.478;2023-07-16T10:14:44;8.38;;;7.57;;
81170;SDS011;70644;44.818;20.478;2023-07-16T10:17:14;7.53;;;6.82;;
81170;SDS011;70644;44.818;20.478;2023-07-16T10:19:56;8.20;;;7.40;;
81170;SDS011;70644;44.818;20.478;2023-07-16T10:22:33;8.27;;;7.57;;
81170;SDS011;70644;44.818;20.478;2023-07-16T10:24:59;8.45;;;7.35;;
81170;SDS011;70644;44.818;20.478;2023-07-16T10:27:26;9.32;;;7.80;;
81170;SDS011;70644;44.818;20.478;2023-07-16T10:29:53;8.65;;;7.85;;
81170;SDS011;70644;44.818;20.478;2023-07-16T10:32:20;8.55;;;7.75;;
81170;SDS011;70644;44.818;20.478;2023-07-16T10:34:46;8.68;;;7.88;;
81170;SDS011;70644;44.818;20.478;2023-07-16T10:37:12;8.05;;;7.35;;
81170;SDS011;70644;44.818;20.478;2023-07-16T10:39:48;9.43;;;8.50;;
81170;SDS011;70644;44.818;20.478;2023-07-16T10:42:17;7.90;;;7.20;;
81170;SDS011;70644;44.818;20.478;2023-07-16T10:44:44;8.25;;;7.45;;
81170;SDS011;70644;44.818;20.478;2023-07-16T10:47:55;8.82;;;8.02;;
81170;SDS011;70644;44.818;20.478;2023-07-16T10:49:57;9.02;;;8.23;;
81170;SDS011;70644;44.818;20.478;2023-07-16T10:52:23;8.70;;;7.93;;
81170;SDS011;70644;44.818;20.478;2023-07-16T10:54:50;9.50;;;8.55;;
81170;SDS011;70644;44.818;20.478;2023-07-16T10:57:19;9.48;;;8.57;;
81170;SDS011;70644;44.818;20.478;2023-07-16T10:59:45;8.02;;;7.32;;
81170;SDS011;70644;44.818;20.478;2023-07-16T11:02:14;9.45;;;8.65;;
81170;SDS011;70644;44.818;20.478;2023-07-16T11:04:40;10.32;;;9.38;;
81170;SDS011;70644;44.818;20.478;2023-07-16T11:07:07;9.30;;;8.40;;
81170;SDS011;70644;44.818;20.478;2023-07-16T11:09:34;9.55;;;8.75;;
81170;SDS011;70644;44.818;20.478;2023-07-16T11:12:07;9.23;;;8.43;;
81170;SDS011;70644;44.818;20.478;2023-07-16T11:14:33;9.82;;;8.93;;
81170;SDS011;70644;44.818;20.478;2023-07-16T11:17:07;9.60;;;8.80;;
81170;SDS011;70644;44.818;20.478;2023-07-16T11:19:34;9.70;;;8.80;;
81170;SDS011;70644;44.818;20.478;2023-07-16T11:22:01;9.32;;;8.52;;
81170;SDS011;70644;44.818;20.478;2023-07-16T11:24:28;9.90;;;8.90;;
81170;SDS011;70644;44.818;20.478;2023-07-16T11:26:54;9.63;;;8.73;;
81170;SDS011;70644;44.818;20.478;2023-07-16T11:29:24;9.75;;;8.95;;
81170;SDS011;70644;44.818;20.478;2023-07-16T11:31:51;9.35;;;8.45;;
81170;SDS011;70644;44.818;20.478;2023-07-16T11:34:21;10.00;;;9.00;;
81170;SDS011;70644;44.818;20.478;2023-07-16T11:36:48;9.25;;;8.27;;
81170;SDS011;70644;44.818;20.478;2023-07-16T11:39:14;8.48;;;7.50;;
81170;SDS011;70644;44.818;20.478;2023-07-16T11:41:40;9.63;;;8.82;;
81170;SDS011;70644;44.818;20.478;2023-07-16T11:44:07;9.93;;;9.05;;
81170;SDS011;70644;44.818;20.478;2023-07-16T11:46:34;9.43;;;8.45;;
81170;SDS011;70644;44.818;20.478;2023-07-16T11:49:00;10.10;;;9.13;;
81170;SDS011;70644;44.818;20.478;2023-07-16T11:51:27;9.65;;;8.75;;
81170;SDS011;70644;44.818;20.478;2023-07-16T11:53:55;9.88;;;8.98;;
81170;SDS011;70644;44.818;20.478;2023-07-16T11:56:21;9.75;;;8.85;;
81170;SDS011;70644;44.818;20.478;2023-07-16T11:58:48;10.25;;;9.30;;
81170;SDS011;70644;44.818;20.478;2023-07-16T12:01:15;10.25;;;9.35;;
81170;SDS011;70644;44.818;20.478;2023-07-16T12:03:41;9.68;;;8.88;;
81170;SDS011;70644;44.818;20.478;2023-07-16T12:06:08;9.80;;;9.00;;
81170;SDS011;70644;44.818;20.478;2023-07-16T12:08:34;9.95;;;9.05;;
81170;SDS011;70644;44.818;20.478;2023-07-16T12:11:00;9.43;;;8.52;;
81170;SDS011;70644;44.818;20.478;2023-07-16T12:13:26;9.85;;;8.95;;
81170;SDS011;70644;44.818;20.478;2023-07-16T12:15:52;9.68;;;8.88;;
81170;SDS011;70644;44.818;20.478;2023-07-16T12:18:18;10.32;;;9.32;;
81170;SDS011;70644;44.818;20.478;2023-07-16T12:20:44;9.80;;;8.90;;
81170;SDS011;70644;44.818;20.478;2023-07-16T12:23:10;10.02;;;9.07;;
81170;SDS011;70644;44.818;20.478;2023-07-16T12:25:36;10.57;;;9.68;;
81170;SDS011;70644;44.818;20.478;2023-07-16T12:28:02;10.63;;;9.63;;
81170;SDS011;70644;44.818;20.478;2023-07-16T12:30:29;9.88;;;8.98;;
81170;SDS011;70644;44.818;20.478;2023-07-16T12:32:55;9.82;;;8.95;;
81170;SDS011;70644;44.818;20.478;2023-07-16T12:35:21;9.77;;;8.77;;
81170;SDS011;70644;44.818;20.478;2023-07-16T12:37:47;10.05;;;9.15;;
81170;SDS011;70644;44.818;20.478;2023-07-16T12:40:13;8.73;;;7.93;;
81170;SDS011;70644;44.818;20.478;2023-07-16T12:42:39;9.88;;;8.98;;
81170;SDS011;70644;44.818;20.478;2023-07-16T12:45:05;10.63;;;9.63;;
81170;SDS011;70644;44.818;20.478;2023-07-16T12:47:32;9.98;;;8.98;;
81170;SDS011;70644;44.818;20.478;2023-07-16T12:49:58;9.73;;;8.93;;
81170;SDS011;70644;44.818;20.478;2023-07-16T12:52:24;10.02;;;9.13;;
81170;SDS011;70644;44.818;20.478;2023-07-16T12:54:50;10.70;;;9.70;;
81170;SDS011;70644;44.818;20.478;2023-07-16T12:57:17;10.60;;;9.70;;
81170;SDS011;70644;44.818;20.478;2023-07-16T12:59:43;11.30;;;10.20;;
81170;SDS011;70644;44.818;20.478;2023-07-16T13:02:09;10.45;;;9.52;;
81170;SDS011;70644;44.818;20.478;2023-07-16T13:04:35;11.05;;;10.05;;
81170;SDS011;70644;44.818;20.478;2023-07-16T13:07:01;11.25;;;10.25;;
81170;SDS011;70644;44.818;20.478;2023-07-16T13:09:27;11.48;;;10.48;;
81170;SDS011;70644;44.818;20.478;2023-07-16T13:11:53;11.55;;;10.55;;
81170;SDS011;70644;44.818;20.478;2023-07-16T13:14:19;11.85;;;10.65;;
81170;SDS011;70644;44.818;20.478;2023-07-16T13:16:45;11.45;;;10.45;;
81170;SDS011;70644;44.818;20.478;2023-07-16T13:19:12;11.65;;;10.65;;
81170;SDS011;70644;44.818;20.478;2023-07-16T13:21:38;11.77;;;10.77;;
81170;SDS011;70644;44.818;20.478;2023-07-16T13:24:04;12.50;;;11.40;;
81170;SDS011;70644;44.818;20.478;2023-07-16T13:26:30;12.75;;;11.40;;
81170;SDS011;70644;44.818;20.478;2023-07-16T13:28:56;12.50;;;11.40;;
81170;SDS011;70644;44.818;20.478;2023-07-16T13:31:22;12.60;;;11.40;;
81170;SDS011;70644;44.818;20.478;2023-07-16T13:33:48;13.07;;;11.90;;
81170;SDS011;70644;44.818;20.478;2023-07-16T13:36:14;12.50;;;11.40;;
81170;SDS011;70644;44.818;20.478;2023-07-16T13:38:40;13.05;;;11.95;;
81170;SDS011;70644;44.818;20.478;2023-07-16T13:41:06;13.02;;;11.82;;
81170;SDS011;70644;44.818;20.478;2023-07-16T13:43:32;13.30;;;12.20;;
81170;SDS011;70644;44.818;20.478;2023-07-16T13:45:59;14.10;;;12.90;;
81170;SDS011;70644;44.818;20.478;2023-07-16T13:48:25;14.10;;;12.90;;
81170;SDS011;70644;44.818;20.478;2023-07-16T13:50:51;13.55;;;12.35;;
81170;SDS011;70644;44.818;20.478;2023-07-16T13:53:17;14.10;;;12.80;;
81170;SDS011;70644;44.818;20.478;2023-07-16T13:55:43;15.13;;;13.73;;
81170;SDS011;70644;44.818;20.478;2023-07-16T13:58:09;14.38;;;13.07;;
81170;SDS011;70644;44.818;20.478;2023-07-16T14:00:36;14.65;;;13.45;;
81170;SDS011;70644;44.818;20.478;2023-07-16T14:03:02;16.52;;;14.98;;
81170;SDS011;70644;44.818;20.478;2023-07-16T14:05:28;14.85;;;13.50;;
81170;SDS011;70644;44.818;20.478;2023-07-16T14:07:54;15.10;;;13.82;;
81170;SDS011;70644;44.818;20.478;2023-07-16T14:10:20;14.57;;;13.27;;
81170;SDS011;70644;44.818;20.478;2023-07-16T14:12:47;14.88;;;13.57;;
81170;SDS011;70644;44.818;20.478;2023-07-16T14:15:14;15.48;;;14.07;;
81170;SDS011;70644;44.818;20.478;2023-07-16T14:17:40;16.10;;;14.50;;
81170;SDS011;70644;44.818;20.478;2023-07-16T14:20:07;15.52;;;14.23;;
81170;SDS011;70644;44.818;20.478;2023-07-16T14:22:33;16.52;;;15.13;;
81170;SDS011;70644;44.818;20.478;2023-07-16T14:24:59;16.70;;;15.27;;
81170;SDS011;70644;44.818;20.478;2023-07-16T14:27:25;16.52;;;15.18;;
81170;SDS011;70644;44.818;20.478;2023-07-16T14:29:51;16.17;;;14.77;;
81170;SDS011;70644;44.818;20.478;2023-07-16T14:32:17;16.02;;;14.63;;
81170;SDS011;70644;44.818;20.478;2023-07-16T14:34:44;17.35;;;15.95;;
81170;SDS011;70644;44.818;20.478;2023-07-16T14:37:10;16.50;;;15.10;;
81170;SDS011;70644;44.818;20.478;2023-07-16T14:39:37;15.05;;;13.75;;
81170;SDS011;70644;44.818;20.478;2023-07-16T14:42:03;16.98;;;15.48;;
81170;SDS011;70644;44.818;20.478;2023-07-16T14:44:30;18.13;;;16.52;;